Mahlon Sweet Field
KEUG : now visible

Airfield :











YOU CAN JOIN US ON...

 
LOGIN :

Register | Disclaimer

   EN    FR    IT 

 









Legend :    VFR   Marginal VFR   IFR   Intensive IFR   Very Intensive IFR
Visi :
Ceiling :
>= 8 km
>= 3000ft
5 to 8 km
1000 to 3000 ft
1500m to 5 km
500 to 1000 ft
800 to 1500m
200 to 500 ft
< 800m
< 200 ft
Symbols :   Thunderstorms  Fog  Heavy snow  Heavy precipitations  Wind > 20 kt






- Airport Elevation : 374 ft
- IATA code : EUG


KEUG - Mahlon Sweet Field

CURRENT METAR :
  • 171454Z 17009KT 10SM SCT036 BKN049 OVC055 03/01 A3011 RMK AO2 SLP198 60000 T00330011 52020

EXPIRED METARs :
  • 171354Z 19009KT 10SM FEW050 BKN060 OVC110 03/01 A3009 RMK AO2 SLP192 T00280006
  • 171318Z 16007KT 10SM SCT027 BKN085 OVC110 02/01 A3008 RMK AO2 T00220006
  • 171254Z 16005KT 10SM BKN028 BKN043 BKN050 02/01 A3007 RMK AO2 UPB35E45 SLP186 P0000 T00220006
  • 171229Z 15005KT 10SM FEW012 SCT030 OVC039 02/01 A3006 RMK AO2 T00220006

TAF KEUG
Valid from the 17 at 12:00 until the 18 at 12:00 UTC


171138Z 1712/1812 16007KT P6SM SCT030 OVC060
FM171500 17005KT P6SM VCSH BKN030 OVC060
FM171800 18009KT P6SM -RA BKN011 OVC045
FM180300 17006KT P6SM -SHRA BKN020 OVC050
FM181100 17010KT P6SM -RA BKN025 OVC050



MET'MAP, your aeronautical weather chart ! - Copyright ORBIFLY December 2007 - Disclaimer

ORBIFLY MET'MAP TEAM :

Programming & Development : Alexandra Zaïnal
Concept & original design : Baudouin d'Aumeries
Assistance for programming : Marc-Olivier Méhu
Technical & hardware support : Manuel Goepfert

Contact : metmap@orbifly.com




SOURCES & CREDITS :

   NOAA       Earth
Advisory